Time;durP1;ratioP1;P1;durP2;ratioP2;P2;SDS_P1;SDS_P2;PMS_P1;PMS_P2;Temp;Humidity;BMP_temperature;BMP_pressure;BME280_temperature;BME280_humidity;BME280_pressure;Samples;Min_cycle;Max_cycle;Signal;HPM_P1;HPM_P2
2023/03/14 00:00:34;;;;;;;8.85;3.33;;;;;;;;;;4991098;28;20448;-78
2023/03/14 00:03:00;;;;;;;8.43;3.33;;;;;;;;;;5016081;28;20318;-79
2023/03/14 00:05:26;;;;;;;6.37;3.00;;;;;;;;;;5000007;28;20180;-78
2023/03/14 00:07:53;;;;;;;8.47;3.00;;;;;;;;;;5034161;28;20184;-79
2023/03/14 00:10:19;;;;;;;7.40;2.87;;;;;;;;;;5033869;28;20184;-79
2023/03/14 00:12:45;;;;;;;10.63;3.10;;;;;;;;;;5006555;28;20221;-79
2023/03/14 00:15:11;;;;;;;7.30;3.10;;;;;;;;;;4997320;28;20185;-79
2023/03/14 00:17:37;;;;;;;11.97;3.37;;;;;;;;;;5012019;28;20182;-79
2023/03/14 00:20:07;;;;;;;8.93;3.10;;;;;;;;;;5016392;28;20176;-79
2023/03/14 00:22:37;;;;;;;10.13;2.73;;;;;;;;;;5033575;28;20188;-79
2023/03/14 00:25:04;;;;;;;6.97;2.43;;;;;;;;;;5017104;28;20187;-83
2023/03/14 00:27:30;;;;;;;6.10;2.30;;;;;;;;;;5016798;28;20193;-83
2023/03/14 00:29:56;;;;;;;6.00;2.40;;;;;;;;;;5033656;28;20259;-83
2023/03/14 00:32:23;;;;;;;6.73;2.30;;;;;;;;;;4997621;28;20331;-83
2023/03/14 00:34:49;;;;;;;8.00;2.60;;;;;;;;;;5016028;28;20181;-84
2023/03/14 00:37:15;;;;;;;5.73;2.67;;;;;;;;;;4997233;28;20189;-83
2023/03/14 00:39:41;;;;;;;9.50;2.73;;;;;;;;;;5007324;28;20197;-84
2023/03/14 00:42:07;;;;;;;6.67;2.33;;;;;;;;;;5005585;28;20188;-83
2023/03/14 00:44:33;;;;;;;8.77;2.63;;;;;;;;;;5000047;28;20184;-83
2023/03/14 00:46:59;;;;;;;6.13;2.50;;;;;;;;;;4999918;28;20216;-83
2023/03/14 00:49:25;;;;;;;6.77;2.13;;;;;;;;;;5012716;28;20224;-83
2023/03/14 00:51:51;;;;;;;9.30;2.88;;;;;;;;;;4999049;28;20479;-83
2023/03/14 00:54:18;;;;;;;7.53;2.47;;;;;;;;;;5016288;28;20197;-83
2023/03/14 00:56:44;;;;;;;7.00;2.77;;;;;;;;;;5019591;28;20184;-83
2023/03/14 00:59:10;;;;;;;5.95;2.33;;;;;;;;;;5003615;28;20498;-78
2023/03/14 01:01:36;;;;;;;8.40;2.37;;;;;;;;;;5019677;28;20183;-78
2023/03/14 01:04:02;;;;;;;7.27;2.10;;;;;;;;;;5019522;28;20181;-77
2023/03/14 01:06:29;;;;;;;5.40;2.10;;;;;;;;;;5037094;28;20177;-78
2023/03/14 01:08:56;;;;;;;7.70;1.97;;;;;;;;;;5019736;28;20239;-78
2023/03/14 01:11:27;;;;;;;10.33;2.37;;;;;;;;;;5019403;28;20180;-77
2023/03/14 01:13:53;;;;;;;8.10;2.10;;;;;;;;;;5019323;28;20235;-78
2023/03/14 01:16:20;;;;;;;6.93;2.30;;;;;;;;;;5019317;28;20423;-78
2023/03/14 01:18:47;;;;;;;7.28;2.45;;;;;;;;;;5019156;28;20417;-78
2023/03/14 01:21:15;;;;;;;10.45;2.90;;;;;;;;;;5016529;28;20428;-78
2023/03/14 01:23:41;;;;;;;5.90;2.30;;;;;;;;;;5028029;28;20310;-78
2023/03/14 01:26:12;;;;;;;9.00;2.33;;;;;;;;;;5012366;28;20247;-78
2023/03/14 01:28:38;;;;;;;9.43;2.58;;;;;;;;;;5010364;28;20421;-78
2023/03/14 01:31:05;;;;;;;8.47;2.30;;;;;;;;;;4993601;28;20238;-82
2023/03/14 01:33:31;;;;;;;5.97;2.40;;;;;;;;;;5008309;28;20271;-82
2023/03/14 01:35:57;;;;;;;9.40;2.70;;;;;;;;;;4995483;28;20461;-82
2023/03/14 01:38:23;;;;;;;6.47;2.33;;;;;;;;;;4991786;28;20209;-82
2023/03/14 01:40:49;;;;;;;10.83;2.73;;;;;;;;;;4992755;28;20271;-83
2023/03/14 01:43:17;;;;;;;11.03;2.40;;;;;;;;;;5010190;28;20304;-84
2023/03/14 01:45:58;;;;;;;5.53;2.23;;;;;;;;;;5007834;28;20200;-83
2023/03/14 01:48:25;;;;;;;5.90;2.10;;;;;;;;;;5010269;28;20230;-84
2023/03/14 01:50:52;;;;;;;5.07;2.30;;;;;;;;;;5010542;28;21809;-83
2023/03/14 01:53:21;;;;;;;9.00;2.20;;;;;;;;;;4995657;28;20263;-84
2023/03/14 01:55:47;;;;;;;8.37;2.40;;;;;;;;;;4993645;28;20189;-83
2023/03/14 01:58:14;;;;;;;6.17;2.10;;;;;;;;;;5009428;28;20177;-84
2023/03/14 02:00:40;;;;;;;7.17;2.23;;;;;;;;;;4993026;28;20180;-83
2023/03/14 02:03:09;;;;;;;8.50;2.33;;;;;;;;;;4994246;28;20256;-83
2023/03/14 02:05:37;;;;;;;8.43;2.40;;;;;;;;;;5005136;28;20188;-80
2023/03/14 02:08:04;;;;;;;8.70;2.37;;;;;;;;;;5018983;28;20191;-80
2023/03/14 02:10:36;;;;;;;7.93;2.37;;;;;;;;;;5009001;28;20195;-80
2023/03/14 02:13:03;;;;;;;5.40;2.40;;;;;;;;;;5018257;28;20219;-80
2023/03/14 02:15:30;;;;;;;9.10;2.80;;;;;;;;;;5018008;28;20263;-80
2023/03/14 02:17:57;;;;;;;9.00;2.60;;;;;;;;;;5018186;28;20198;-80
2023/03/14 02:20:29;;;;;;;10.67;2.93;;;;;;;;;;5001768;28;20212;-83
2023/03/14 02:22:55;;;;;;;10.23;2.97;;;;;;;;;;5017999;28;20279;-83
2023/03/14 02:25:26;;;;;;;10.00;2.80;;;;;;;;;;5011259;28;20231;-84
2023/03/14 02:27:53;;;;;;;13.37;2.50;;;;;;;;;;5018235;28;20193;-83
2023/03/14 02:30:23;;;;;;;11.03;2.93;;;;;;;;;;5018520;28;20180;-83
2023/03/14 02:32:51;;;;;;;9.23;3.13;;;;;;;;;;5018296;28;20219;-83
2023/03/14 02:35:26;;;;;;;10.83;2.97;;;;;;;;;;5017563;28;20184;-83
2023/03/14 02:37:55;;;;;;;10.00;2.63;;;;;;;;;;5035438;28;20188;-79
2023/03/14 02:40:21;;;;;;;9.93;2.60;;;;;;;;;;5017911;28;20188;-79
2023/03/14 02:42:47;;;;;;;10.30;2.63;;;;;;;;;;5017894;28;20189;-79
2023/03/14 02:45:16;;;;;;;10.73;2.37;;;;;;;;;;5018077;28;20192;-78
2023/03/14 02:47:46;;;;;;;11.00;2.57;;;;;;;;;;5018197;28;20180;-79
2023/03/14 02:50:15;;;;;;;9.47;2.53;;;;;;;;;;5031890;28;20185;-78
2023/03/14 02:52:41;;;;;;;11.13;2.73;;;;;;;;;;5017446;28;20209;-79
2023/03/14 02:55:07;;;;;;;7.97;2.40;;;;;;;;;;5017767;28;20191;-83
2023/03/14 02:57:33;;;;;;;9.90;2.27;;;;;;;;;;5018145;28;20185;-83
2023/03/14 02:59:59;;;;;;;10.53;2.67;;;;;;;;;;5034876;28;20183;-83
2023/03/14 03:02:25;;;;;;;9.87;2.60;;;;;;;;;;5017857;28;20180;-83
2023/03/14 03:04:51;;;;;;;10.80;2.17;;;;;;;;;;5000673;28;20193;-83
2023/03/14 03:07:18;;;;;;;6.40;2.20;;;;;;;;;;5001029;28;20199;-83
2023/03/14 03:09:45;;;;;;;9.03;2.50;;;;;;;;;;5001455;28;20188;-83
2023/03/14 03:12:11;;;;;;;7.07;2.37;;;;;;;;;;5000838;28;20185;-78
2023/03/14 03:14:37;;;;;;;8.80;2.70;;;;;;;;;;5016661;28;20244;-78
2023/03/14 03:17:03;;;;;;;9.93;2.57;;;;;;;;;;5013960;28;21435;-78
2023/03/14 03:19:29;;;;;;;7.70;2.70;;;;;;;;;;5034740;28;20176;-78
2023/03/14 03:21:55;;;;;;;8.33;2.53;;;;;;;;;;5015847;28;20219;-78
2023/03/14 03:24:21;;;;;;;9.30;2.77;;;;;;;;;;5000651;28;20185;-78
2023/03/14 03:26:47;;;;;;;8.53;2.63;;;;;;;;;;5000714;28;20217;-78
2023/03/14 03:29:13;;;;;;;11.03;2.50;;;;;;;;;;5017364;28;20196;-78
2023/03/14 03:31:39;;;;;;;11.50;2.37;;;;;;;;;;5016507;28;20224;-78
2023/03/14 03:34:05;;;;;;;9.73;2.80;;;;;;;;;;4999974;28;20228;-78
2023/03/14 03:36:31;;;;;;;8.10;2.67;;;;;;;;;;5000170;28;20192;-78
2023/03/14 03:38:57;;;;;;;11.20;2.97;;;;;;;;;;5001308;28;20191;-78
2023/03/14 03:41:23;;;;;;;9.93;2.80;;;;;;;;;;5000157;28;20192;-78
2023/03/14 03:43:49;;;;;;;9.53;3.10;;;;;;;;;;5000734;28;20197;-78
2023/03/14 03:46:15;;;;;;;10.60;2.50;;;;;;;;;;5016237;28;20263;-78
2023/03/14 03:48:41;;;;;;;10.17;2.70;;;;;;;;;;4993813;28;20200;-79
2023/03/14 03:51:07;;;;;;;8.83;2.77;;;;;;;;;;5000476;28;20310;-78
2023/03/14 03:53:34;;;;;;;10.93;3.00;;;;;;;;;;5016350;28;20321;-78
2023/03/14 03:56:00;;;;;;;10.07;2.80;;;;;;;;;;5010191;28;20244;-80
2023/03/14 03:58:26;;;;;;;7.57;2.90;;;;;;;;;;5000439;28;20184;-80
2023/03/14 04:00:52;;;;;;;14.47;3.60;;;;;;;;;;5013223;28;20283;-83
2023/03/14 04:03:18;;;;;;;11.40;3.00;;;;;;;;;;4988863;28;20189;-83
2023/03/14 04:05:44;;;;;;;11.03;2.90;;;;;;;;;;5013239;28;20200;-83
2023/03/14 04:08:10;;;;;;;10.47;3.37;;;;;;;;;;5007937;28;20203;-83
2023/03/14 04:10:36;;;;;;;9.33;2.80;;;;;;;;;;5000516;28;20196;-84
2023/03/14 04:13:03;;;;;;;13.00;3.33;;;;;;;;;;5000048;28;20266;-83
2023/03/14 04:15:29;;;;;;;13.03;3.47;;;;;;;;;;4999826;28;20185;-83
2023/03/14 04:17:58;;;;;;;13.97;3.53;;;;;;;;;;5000137;28;20208;-79
2023/03/14 04:20:24;;;;;;;10.13;3.03;;;;;;;;;;5014830;28;20181;-78
2023/03/14 04:22:50;;;;;;;10.97;3.17;;;;;;;;;;5000635;28;20189;-79
2023/03/14 04:25:17;;;;;;;11.13;3.00;;;;;;;;;;5016843;28;20185;-79
2023/03/14 04:27:43;;;;;;;11.13;2.83;;;;;;;;;;5000016;28;20193;-79
2023/03/14 04:30:09;;;;;;;10.03;2.80;;;;;;;;;;5036805;28;20184;-78
2023/03/14 04:32:35;;;;;;;8.50;3.07;;;;;;;;;;5020369;28;20232;-79
2023/03/14 04:35:01;;;;;;;10.87;3.07;;;;;;;;;;5020391;28;20184;-79
2023/03/14 04:37:27;;;;;;;8.87;2.53;;;;;;;;;;5004088;28;20181;-79
2023/03/14 04:39:53;;;;;;;12.57;2.97;;;;;;;;;;4989872;28;20200;-79
2023/03/14 04:42:19;;;;;;;10.37;2.80;;;;;;;;;;5016979;28;20185;-79
2023/03/14 04:44:46;;;;;;;11.90;3.20;;;;;;;;;;5011902;28;20216;-79
2023/03/14 04:47:12;;;;;;;10.47;3.10;;;;;;;;;;4995029;23;20233;-79
2023/03/14 04:49:38;;;;;;;11.60;2.80;;;;;;;;;;4982582;28;20267;-79
2023/03/14 04:52:04;;;;;;;9.87;2.50;;;;;;;;;;4983555;28;20196;-78
2023/03/14 04:54:30;;;;;;;7.93;2.83;;;;;;;;;;4983385;28;20193;-78
2023/03/14 04:56:56;;;;;;;10.37;2.57;;;;;;;;;;4982980;28;20181;-78
2023/03/14 04:59:22;;;;;;;9.23;2.90;;;;;;;;;;4972604;28;20205;-78
2023/03/14 05:01:49;;;;;;;8.20;2.10;;;;;;;;;;4998117;28;20189;-78
2023/03/14 05:04:15;;;;;;;7.47;2.07;;;;;;;;;;4990782;28;20189;-78
2023/03/14 05:06:42;;;;;;;8.40;2.23;;;;;;;;;;4978678;28;20185;-78
2023/03/14 05:09:08;;;;;;;9.70;2.40;;;;;;;;;;5000388;28;20188;-81
2023/03/14 05:11:34;;;;;;;9.90;2.33;;;;;;;;;;4995503;28;20182;-81
2023/03/14 05:14:00;;;;;;;9.33;2.27;;;;;;;;;;4975482;28;20272;-80
2023/03/14 05:16:26;;;;;;;9.17;2.40;;;;;;;;;;4978900;28;20189;-81
2023/03/14 05:18:52;;;;;;;7.93;2.27;;;;;;;;;;4972369;28;20195;-81
2023/03/14 05:21:18;;;;;;;8.73;2.13;;;;;;;;;;4990622;28;20265;-81
2023/03/14 05:23:44;;;;;;;10.70;2.37;;;;;;;;;;5007449;28;20188;-78
2023/03/14 05:26:10;;;;;;;5.03;1.73;;;;;;;;;;4992224;28;20182;-78
2023/03/14 05:28:36;;;;;;;8.50;1.93;;;;;;;;;;4975341;28;20192;-78
2023/03/14 05:31:06;;;;;;;5.83;1.97;;;;;;;;;;5009846;28;20204;-78
2023/03/14 05:33:32;;;;;;;7.90;1.80;;;;;;;;;;4989668;28;20252;-78
2023/03/14 05:35:58;;;;;;;5.87;1.70;;;;;;;;;;4979188;28;20236;-78
2023/03/14 05:38:24;;;;;;;9.50;2.65;;;;;;;;;;4974372;28;20460;-78
2023/03/14 05:40:50;;;;;;;8.50;2.25;;;;;;;;;;4981447;28;20423;-79
2023/03/14 05:43:16;;;;;;;6.37;2.40;;;;;;;;;;5006415;28;20431;-79
2023/03/14 05:45:43;;;;;;;8.45;2.50;;;;;;;;;;4971357;28;20416;-79
2023/03/14 05:48:09;;;;;;;6.47;2.40;;;;;;;;;;4990214;28;20420;-79
2023/03/14 05:50:35;;;;;;;7.90;2.50;;;;;;;;;;4973303;28;20407;-79
2023/03/14 05:53:01;;;;;;;7.53;2.72;;;;;;;;;;4989935;28;20435;-79
2023/03/14 05:55:27;;;;;;;6.90;2.78;;;;;;;;;;4989379;28;20415;-79
2023/03/14 05:57:54;;;;;;;8.10;2.60;;;;;;;;;;4963703;28;20436;-81
2023/03/14 06:00:20;;;;;;;6.75;2.20;;;;;;;;;;4984394;28;20465;-81
2023/03/14 06:02:46;;;;;;;8.43;2.50;;;;;;;;;;4989398;28;20420;-81
2023/03/14 06:05:12;;;;;;;7.03;2.47;;;;;;;;;;4988906;28;20475;-80
2023/03/14 06:07:45;;;;;;;6.43;2.50;;;;;;;;;;4987654;28;20508;-80
2023/03/14 06:10:11;;;;;;;7.03;2.10;;;;;;;;;;4972462;28;20205;-80
2023/03/14 06:12:37;;;;;;;6.93;2.37;;;;;;;;;;5005059;28;20206;-80
2023/03/14 06:15:03;;;;;;;6.50;2.30;;;;;;;;;;4972349;28;20280;-79
2023/03/14 06:17:29;;;;;;;6.30;2.27;;;;;;;;;;4981207;28;20189;-78
2023/03/14 06:19:55;;;;;;;6.00;2.23;;;;;;;;;;5009521;28;20185;-78
2023/03/14 06:22:21;;;;;;;4.80;2.00;;;;;;;;;;4982646;28;20234;-78
2023/03/14 06:24:47;;;;;;;6.80;2.13;;;;;;;;;;4998889;28;20308;-78
2023/03/14 06:27:13;;;;;;;5.40;2.00;;;;;;;;;;4998974;28;20213;-78
2023/03/14 06:29:39;;;;;;;6.63;2.20;;;;;;;;;;4982531;28;20256;-78
2023/03/14 06:32:05;;;;;;;3.90;2.17;;;;;;;;;;4969095;28;20265;-78
2023/03/14 06:34:31;;;;;;;4.33;2.40;;;;;;;;;;4963564;28;20182;-78
2023/03/14 06:36:57;;;;;;;4.87;2.70;;;;;;;;;;4963815;28;20190;-78
2023/03/14 06:39:23;;;;;;;5.50;2.43;;;;;;;;;;4965799;28;20186;-78
2023/03/14 06:41:49;;;;;;;5.03;2.30;;;;;;;;;;4973776;28;20193;-78
2023/03/14 06:44:15;;;;;;;4.73;2.73;;;;;;;;;;4965334;28;20217;-78
2023/03/14 06:46:41;;;;;;;6.07;3.00;;;;;;;;;;4967938;28;20221;-78
2023/03/14 06:49:07;;;;;;;8.23;3.30;;;;;;;;;;4985070;28;20233;-80
2023/03/14 06:51:33;;;;;;;7.97;3.40;;;;;;;;;;5012286;28;20181;-79
2023/03/14 06:53:59;;;;;;;6.10;3.20;;;;;;;;;;4984903;28;20308;-79
2023/03/14 06:56:26;;;;;;;7.40;3.37;;;;;;;;;;4997708;28;20264;-79
2023/03/14 06:58:52;;;;;;;5.70;3.30;;;;;;;;;;4972016;28;20190;-79
2023/03/14 07:01:20;;;;;;;7.97;3.70;;;;;;;;;;4973324;28;20193;-80
2023/03/14 07:03:46;;;;;;;9.33;3.57;;;;;;;;;;4986997;28;20204;-78
2023/03/14 07:06:12;;;;;;;9.23;3.93;;;;;;;;;;4992113;28;20189;-79
2023/03/14 07:08:39;;;;;;;7.63;4.10;;;;;;;;;;4968486;28;20186;-84
2023/03/14 07:11:05;;;;;;;7.30;4.03;;;;;;;;;;4972551;28;20281;-84
2023/03/14 07:13:31;;;;;;;6.80;3.87;;;;;;;;;;5015304;28;20219;-84
2023/03/14 07:15:57;;;;;;;6.63;4.30;;;;;;;;;;4997713;28;20271;-84
2023/03/14 07:18:23;;;;;;;8.80;4.07;;;;;;;;;;4982085;28;20259;-84
2023/03/14 07:20:49;;;;;;;8.17;4.90;;;;;;;;;;4981672;28;20189;-79
2023/03/14 07:23:15;;;;;;;8.07;4.73;;;;;;;;;;4976652;28;20185;-77
2023/03/14 07:25:41;;;;;;;11.20;5.30;;;;;;;;;;4976026;28;20276;-79
2023/03/14 07:28:07;;;;;;;10.90;4.80;;;;;;;;;;4997698;28;20263;-78
2023/03/14 07:30:33;;;;;;;8.17;5.20;;;;;;;;;;4974355;28;20182;-79
2023/03/14 07:32:59;;;;;;;11.70;5.20;;;;;;;;;;4977747;28;20208;-79
2023/03/14 07:35:25;;;;;;;7.00;4.90;;;;;;;;;;4981489;28;20209;-78
2023/03/14 07:37:51;;;;;;;5.07;3.37;;;;;;;;;;4981113;28;20217;-82
2023/03/14 07:40:17;;;;;;;4.77;3.30;;;;;;;;;;4997963;28;20182;-81
2023/03/14 07:42:43;;;;;;;4.90;3.27;;;;;;;;;;4981769;28;20208;-81
2023/03/14 07:45:10;;;;;;;4.20;2.77;;;;;;;;;;4996758;28;20280;-81
2023/03/14 07:47:36;;;;;;;5.77;3.50;;;;;;;;;;4994073;28;20234;-81
2023/03/14 07:50:03;;;;;;;4.07;2.90;;;;;;;;;;4994304;28;20178;-80
2023/03/14 07:52:29;;;;;;;4.60;1.90;;;;;;;;;;4977870;28;20217;-81
2023/03/14 07:54:55;;;;;;;3.37;1.60;;;;;;;;;;4974007;28;20198;-78
2023/03/14 07:57:23;;;;;;;3.87;1.70;;;;;;;;;;4974838;28;20237;-78
2023/03/14 07:59:49;;;;;;;1.60;1.50;;;;;;;;;;4975754;28;20175;-79
2023/03/14 08:02:16;;;;;;;3.57;1.43;;;;;;;;;;4973924;28;20198;-78
2023/03/14 08:04:42;;;;;;;6.47;1.60;;;;;;;;;;4974245;28;20189;-79
2023/03/14 08:07:08;;;;;;;3.00;1.60;;;;;;;;;;4975473;28;20222;-79
2023/03/14 08:09:34;;;;;;;2.80;1.30;;;;;;;;;;4974180;28;20174;-79
2023/03/14 08:12:00;;;;;;;2.13;1.47;;;;;;;;;;4969245;28;20280;-79
2023/03/14 08:14:26;;;;;;;2.93;1.40;;;;;;;;;;4974602;28;20214;-79
2023/03/14 08:16:52;;;;;;;3.43;1.33;;;;;;;;;;4975314;28;20186;-79
2023/03/14 08:19:18;;;;;;;2.07;1.43;;;;;;;;;;4987133;28;20243;-79
2023/03/14 08:21:44;;;;;;;3.67;1.50;;;;;;;;;;4993415;28;20205;-78
2023/03/14 08:24:10;;;;;;;4.50;1.30;;;;;;;;;;4977562;28;20193;-79
2023/03/14 08:26:36;;;;;;;1.77;1.37;;;;;;;;;;4977665;28;20194;-78
2023/03/14 08:29:04;;;;;;;2.50;1.45;;;;;;;;;;4989721;28;20453;-85
2023/03/14 08:31:30;;;;;;;2.28;1.35;;;;;;;;;;4957519;28;20454;-82
2023/03/14 08:33:59;;;;;;;2.20;1.40;;;;;;;;;;4958468;28;20210;-83
2023/03/14 08:36:26;;;;;;;2.70;1.43;;;;;;;;;;4975465;28;20261;-83
2023/03/14 08:38:52;;;;;;;2.50;1.40;;;;;;;;;;4966378;28;20194;-83
2023/03/14 08:41:18;;;;;;;3.67;1.43;;;;;;;;;;4994293;28;20189;-83
2023/03/14 08:43:44;;;;;;;5.67;1.53;;;;;;;;;;4977265;28;20192;-78
2023/03/14 08:46:10;;;;;;;5.20;1.43;;;;;;;;;;4977508;28;20225;-83
2023/03/14 08:48:36;;;;;;;3.60;1.13;;;;;;;;;;4977069;28;20194;-83
2023/03/14 08:51:06;;;;;;;4.23;1.03;;;;;;;;;;4988812;28;20198;-83
2023/03/14 08:53:32;;;;;;;3.37;1.30;;;;;;;;;;4993529;28;20224;-83
2023/03/14 08:55:58;;;;;;;4.80;1.40;;;;;;;;;;4977020;28;20201;-83
2023/03/14 08:58:25;;;;;;;5.70;1.47;;;;;;;;;;4977632;28;20182;-83
2023/03/14 09:00:51;;;;;;;2.87;1.43;;;;;;;;;;4976594;28;20198;-78
2023/03/14 09:03:17;;;;;;;6.30;1.47;;;;;;;;;;4992831;28;20193;-77
2023/03/14 09:05:43;;;;;;;4.87;1.47;;;;;;;;;;4994016;28;20222;-78
2023/03/14 09:08:09;;;;;;;6.33;1.70;;;;;;;;;;4987252;28;20256;-78
2023/03/14 09:10:35;;;;;;;4.53;1.30;;;;;;;;;;4992507;28;20285;-78
2023/03/14 09:13:01;;;;;;;5.97;1.23;;;;;;;;;;4977058;28;20351;-78
2023/03/14 09:15:27;;;;;;;6.07;1.53;;;;;;;;;;4994378;28;20272;-78
2023/03/14 09:17:53;;;;;;;4.27;1.20;;;;;;;;;;4981302;28;20182;-80
2023/03/14 09:20:19;;;;;;;3.27;1.17;;;;;;;;;;4980207;28;20194;-80
2023/03/14 09:22:45;;;;;;;8.43;1.70;;;;;;;;;;4996932;28;20178;-80
2023/03/14 09:25:11;;;;;;;3.93;1.10;;;;;;;;;;4997216;28;20186;-80
2023/03/14 09:27:37;;;;;;;7.07;1.60;;;;;;;;;;4996321;28;20189;-79
2023/03/14 09:30:04;;;;;;;4.77;1.20;;;;;;;;;;4980756;28;20222;-80
2023/03/14 09:32:31;;;;;;;2.73;1.10;;;;;;;;;;4979771;28;20189;-81
2023/03/14 09:34:57;;;;;;;3.43;1.00;;;;;;;;;;4995700;28;20196;-79
2023/03/14 09:37:23;;;;;;;2.93;1.10;;;;;;;;;;4996453;28;20240;-79
2023/03/14 09:39:49;;;;;;;2.27;0.80;;;;;;;;;;4979953;28;20190;-79
2023/03/14 09:42:17;;;;;;;4.23;0.90;;;;;;;;;;4996039;28;20194;-78
2023/03/14 09:44:55;;;;;;;2.80;1.10;;;;;;;;;;4996018;28;20190;-79
2023/03/14 09:47:21;;;;;;;5.63;1.20;;;;;;;;;;4991233;28;20222;-78
2023/03/14 09:49:47;;;;;;;3.00;1.00;;;;;;;;;;4989765;28;20259;-78
2023/03/14 09:52:15;;;;;;;2.87;1.00;;;;;;;;;;4983019;28;20194;-80
2023/03/14 09:54:50;;;;;;;2.77;0.90;;;;;;;;;;4998835;28;20190;-81
2023/03/14 09:57:18;;;;;;;2.33;1.20;;;;;;;;;;4998703;28;20175;-81
2023/03/14 09:59:48;;;;;;;4.77;1.23;;;;;;;;;;4998424;28;20173;-81
2023/03/14 10:02:25;;;;;;;3.30;1.10;;;;;;;;;;4999042;28;20231;-82
2023/03/14 10:04:52;;;;;;;3.10;1.20;;;;;;;;;;4999156;28;20177;-83
2023/03/14 10:07:19;;;;;;;4.93;1.50;;;;;;;;;;4998877;28;20185;-78
2023/03/14 10:09:50;;;;;;;6.70;1.37;;;;;;;;;;4998139;28;20221;-79
2023/03/14 10:12:16;;;;;;;6.53;1.70;;;;;;;;;;4998611;28;20268;-78
2023/03/14 10:14:50;;;;;;;7.03;1.60;;;;;;;;;;4999024;28;20173;-77
2023/03/14 10:17:17;;;;;;;8.00;1.80;;;;;;;;;;4998276;28;20201;-77
2023/03/14 10:19:51;;;;;;;8.13;1.90;;;;;;;;;;4995717;28;20190;-78
2023/03/14 10:22:18;;;;;;;8.90;1.60;;;;;;;;;;4995516;28;20185;-78
2023/03/14 10:24:50;;;;;;;6.57;1.90;;;;;;;;;;4983850;28;20216;-78
2023/03/14 10:27:28;;;;;;;9.03;1.70;;;;;;;;;;4998390;28;20185;-78
2023/03/14 10:29:54;;;;;;;10.23;2.03;;;;;;;;;;4998337;28;20275;-78
2023/03/14 10:32:22;;;;;;;8.30;2.27;;;;;;;;;;4994707;28;20188;-78
2023/03/14 10:35:04;;;;;;;8.13;2.10;;;;;;;;;;4998276;28;20174;-78
2023/03/14 10:37:30;;;;;;;10.13;2.23;;;;;;;;;;4998446;28;20243;-78
2023/03/14 10:40:05;;;;;;;8.50;2.47;;;;;;;;;;4982560;28;20177;-78
2023/03/14 10:42:33;;;;;;;8.67;2.30;;;;;;;;;;4998395;28;20300;-77
2023/03/14 10:45:07;;;;;;;13.33;2.40;;;;;;;;;;4998533;28;20181;-78
2023/03/14 10:47:33;;;;;;;15.13;3.20;;;;;;;;;;5016054;28;20267;-78
2023/03/14 10:50:18;;;;;;;16.13;3.07;;;;;;;;;;4981958;28;20193;-78
2023/03/14 10:52:48;;;;;;;16.47;2.90;;;;;;;;;;5002267;28;20293;-78
2023/03/14 10:55:14;;;;;;;13.10;2.70;;;;;;;;;;4994335;28;20174;-78
2023/03/14 10:57:41;;;;;;;11.13;2.90;;;;;;;;;;4981247;28;20192;-83
2023/03/14 11:00:18;;;;;;;10.67;3.00;;;;;;;;;;4981833;28;20284;-84
2023/03/14 11:03:07;;;;;;;11.00;2.90;;;;;;;;;;5012852;28;20192;-83
2023/03/14 11:05:56;;;;;;;15.27;3.50;;;;;;;;;;4995180;28;20178;-83
2023/03/14 11:08:28;;;;;;;12.90;3.00;;;;;;;;;;4994940;28;20189;-83
2023/03/14 11:10:58;;;;;;;14.33;3.63;;;;;;;;;;4994759;28;20182;-83
2023/03/14 11:13:38;;;;;;;15.73;3.27;;;;;;;;;;4994693;28;20264;-83
2023/03/14 11:16:10;;;;;;;16.10;3.37;;;;;;;;;;4995709;28;20170;-83
2023/03/14 11:18:48;;;;;;;14.30;3.57;;;;;;;;;;4995580;28;20204;-83
2023/03/14 11:21:17;;;;;;;16.77;3.47;;;;;;;;;;4984075;28;20173;-83
2023/03/14 11:23:51;;;;;;;16.13;3.47;;;;;;;;;;4988198;28;20185;-83
2023/03/14 11:26:40;;;;;;;15.57;3.40;;;;;;;;;;4988752;28;20186;-83
2023/03/14 11:29:09;;;;;;;12.73;3.43;;;;;;;;;;4990932;28;20251;-84
2023/03/14 11:31:39;;;;;;;19.87;3.77;;;;;;;;;;4997225;28;20239;-81
2023/03/14 11:34:14;;;;;;;14.33;3.50;;;;;;;;;;4997229;28;20213;-80
2023/03/14 11:36:45;;;;;;;15.33;3.83;;;;;;;;;;4997384;28;20180;-80
2023/03/14 11:39:20;;;;;;;20.60;3.90;;;;;;;;;;5014161;28;20181;-82
2023/03/14 11:41:51;;;;;;;14.90;4.07;;;;;;;;;;4997374;28;20185;-82
2023/03/14 11:44:19;;;;;;;14.83;3.73;;;;;;;;;;4992641;28;20189;-82
2023/03/14 11:46:52;;;;;;;19.20;3.73;;;;;;;;;;4996915;23;20232;-79
2023/03/14 11:49:24;;;;;;;18.50;3.90;;;;;;;;;;5014877;28;20165;-85
2023/03/14 11:51:52;;;;;;;20.00;4.47;;;;;;;;;;4996569;28;20494;-84
2023/03/14 11:54:37;;;;;;;20.38;4.78;;;;;;;;;;5012780;28;20438;-84
2023/03/14 11:57:14;;;;;;;18.42;4.53;;;;;;;;;;5012481;28;20399;-83
2023/03/14 11:59:59;;;;;;;14.57;3.90;;;;;;;;;;5011225;28;20411;-84
2023/03/14 12:02:41;;;;;;;13.00;3.67;;;;;;;;;;4999712;28;20208;-84
2023/03/14 12:05:07;;;;;;;17.13;3.60;;;;;;;;;;4996739;28;20204;-81
2023/03/14 12:07:39;;;;;;;16.20;3.07;;;;;;;;;;4997122;28;20177;-81
2023/03/14 12:10:05;;;;;;;11.90;3.17;;;;;;;;;;4995546;28;20192;-81
2023/03/14 12:12:31;;;;;;;13.70;3.67;;;;;;;;;;4995777;28;20185;-82
2023/03/14 12:14:59;;;;;;;16.77;3.50;;;;;;;;;;4998108;28;20196;-81
2023/03/14 12:17:28;;;;;;;14.93;3.50;;;;;;;;;;4996057;28;20185;-81
2023/03/14 12:20:14;;;;;;;12.13;2.87;;;;;;;;;;4999318;28;20276;-81
2023/03/14 12:22:50;;;;;;;14.10;2.77;;;;;;;;;;5012718;28;20177;-79
2023/03/14 12:25:19;;;;;;;15.70;2.90;;;;;;;;;;5013138;28;20192;-79
2023/03/14 12:27:55;;;;;;;12.20;2.80;;;;;;;;;;5013341;28;20177;-78
2023/03/14 12:30:27;;;;;;;15.73;2.60;;;;;;;;;;4992230;28;20181;-78
2023/03/14 12:33:11;;;;;;;8.17;2.90;;;;;;;;;;5005867;28;20208;-78
2023/03/14 12:35:42;;;;;;;10.30;2.70;;;;;;;;;;4996811;28;20177;-78
2023/03/14 12:38:15;;;;;;;10.37;2.50;;;;;;;;;;4996589;28;20205;-81
2023/03/14 12:40:48;;;;;;;6.77;1.77;;;;;;;;;;5013194;28;20191;-81
2023/03/14 12:43:29;;;;;;;15.63;3.00;;;;;;;;;;4996743;28;20215;-81
2023/03/14 12:46:17;;;;;;;10.77;2.60;;;;;;;;;;4996579;28;20324;-80
2023/03/14 12:48:55;;;;;;;7.93;2.00;;;;;;;;;;4984199;28;20221;-80
2023/03/14 12:51:27;;;;;;;10.03;2.57;;;;;;;;;;4999531;28;20181;-79
2023/03/14 12:54:01;;;;;;;10.60;2.50;;;;;;;;;;5017834;28;20211;-78
2023/03/14 12:56:43;;;;;;;9.20;2.40;;;;;;;;;;5000523;28;20177;-78
2023/03/14 12:59:21;;;;;;;11.00;2.50;;;;;;;;;;4997554;28;20181;-78
2023/03/14 13:01:59;;;;;;;9.07;2.50;;;;;;;;;;4998265;28;20197;-78
2023/03/14 13:04:31;;;;;;;11.67;2.40;;;;;;;;;;4991097;28;20235;-78
2023/03/14 13:06:58;;;;;;;10.87;2.70;;;;;;;;;;4992103;28;20276;-79
2023/03/14 13:09:33;;;;;;;12.67;2.47;;;;;;;;;;4996860;28;20200;-78
2023/03/14 13:12:17;;;;;;;7.47;2.50;;;;;;;;;;5004045;28;20181;-78
2023/03/14 13:14:44;;;;;;;8.67;2.40;;;;;;;;;;5016520;28;20220;-77
2023/03/14 13:17:14;;;;;;;11.07;2.70;;;;;;;;;;4999958;28;20232;-77
2023/03/14 13:19:42;;;;;;;10.50;2.63;;;;;;;;;;4983094;28;20189;-77
2023/03/14 13:22:20;;;;;;;11.07;2.70;;;;;;;;;;5014785;28;20178;-77
2023/03/14 13:24:46;;;;;;;6.53;2.23;;;;;;;;;;5016793;28;20181;-77
2023/03/14 13:27:20;;;;;;;7.47;2.10;;;;;;;;;;5000539;28;20196;-80
2023/03/14 13:29:48;;;;;;;7.83;2.20;;;;;;;;;;4999630;28;20197;-82
2023/03/14 13:32:20;;;;;;;14.37;2.87;;;;;;;;;;4999601;28;20192;-81
2023/03/14 13:34:47;;;;;;;8.43;2.43;;;;;;;;;;4999478;28;20205;-82
2023/03/14 13:37:17;;;;;;;10.53;2.47;;;;;;;;;;5016126;28;20257;-81
2023/03/14 13:39:44;;;;;;;8.77;2.20;;;;;;;;;;4999613;28;20193;-81
2023/03/14 13:42:15;;;;;;;10.47;1.90;;;;;;;;;;4999467;28;20173;-81
2023/03/14 13:44:41;;;;;;;5.90;2.07;;;;;;;;;;4998527;28;20185;-78
2023/03/14 13:47:15;;;;;;;8.00;1.80;;;;;;;;;;4998884;28;20287;-78
2023/03/14 13:49:41;;;;;;;6.60;1.87;;;;;;;;;;4999343;28;20191;-78
2023/03/14 13:52:23;;;;;;;8.30;2.10;;;;;;;;;;4999544;28;20196;-78
2023/03/14 13:54:52;;;;;;;8.80;2.00;;;;;;;;;;5014468;28;20288;-78
2023/03/14 13:57:18;;;;;;;11.63;1.90;;;;;;;;;;5014590;28;20178;-78
2023/03/14 13:59:58;;;;;;;5.70;1.90;;;;;;;;;;4982954;28;20249;-79
2023/03/14 14:02:25;;;;;;;5.00;1.80;;;;;;;;;;4998113;28;20233;-82
2023/03/14 14:04:51;;;;;;;6.53;1.87;;;;;;;;;;5014662;28;20219;-81
2023/03/14 14:07:18;;;;;;;7.90;1.70;;;;;;;;;;4998871;28;20205;-82
2023/03/14 14:09:49;;;;;;;5.97;2.00;;;;;;;;;;5016974;28;20197;-82
2023/03/14 14:12:17;;;;;;;8.30;2.07;;;;;;;;;;5018586;28;20185;-81
2023/03/14 14:14:43;;;;;;;10.27;1.90;;;;;;;;;;5003895;28;20204;-82
2023/03/14 14:17:12;;;;;;;6.97;2.00;;;;;;;;;;4998656;28;20272;-81
2023/03/14 14:19:38;;;;;;;6.20;1.97;;;;;;;;;;4988865;28;20169;-78
2023/03/14 14:22:06;;;;;;;10.07;2.37;;;;;;;;;;4998056;28;20186;-78
2023/03/14 14:24:33;;;;;;;9.27;2.17;;;;;;;;;;4983060;28;20185;-78
2023/03/14 14:27:00;;;;;;;10.37;2.10;;;;;;;;;;4998493;28;20276;-78
2023/03/14 14:29:31;;;;;;;6.10;1.90;;;;;;;;;;4999008;28;20185;-78
2023/03/14 14:32:09;;;;;;;9.43;1.90;;;;;;;;;;5015576;28;20191;-78
2023/03/14 14:34:48;;;;;;;7.37;2.17;;;;;;;;;;4997813;28;20209;-78
2023/03/14 14:37:35;;;;;;;8.20;2.00;;;;;;;;;;4997416;28;20274;-78
2023/03/14 14:40:11;;;;;;;6.10;2.00;;;;;;;;;;5015499;28;20181;-77
2023/03/14 14:42:40;;;;;;;7.57;1.77;;;;;;;;;;5015417;28;20207;-78
2023/03/14 14:45:07;;;;;;;7.53;1.80;;;;;;;;;;4997801;28;20180;-78